VYML weather

Meiktila Air Base
Meiktila, Mandalay Division, Burma

Public forecast

Using degrees Celsius for public forecast. Weather courtesy of forecast.io.

METAR (pilot weather report)

Closest report is Mandalay International Airport, 49.2 nm (91.1 km) N. Retrieved 2019/09/21 02:30 UTC (0 seconds ago):

VYMD 210230Z 24003KT 7000 SCT020 FEW120 31/25 Q1010 NOSIG

TAF (pilot weather forecast)

Forecast is more than 12 hours old.

Closest forecast is Mandalay International Airport, 49.2 nm (91.1 km) N. Retrieved 2019/09/20 00:00 UTC (1 day ago):

TAF VYMD 202300Z 2100/2124 18007KT 6000 SCT020 FEW025CB TEMPO 2100/2106 02008KT 6000 BKN020 FEW025CB